Eira — OJJP — position and weather

sailwx.info

Track history (hours):
 
Tides and Currents Weather Stations Pressure Air Temp Water Temp Dewpoint Dewpoint Depression Visibility Wind Speed Wind Dir Waves Ship Positions

Eira

Last reported at 2014-Dec-14 20:10 UTC. Time now 2014-Dec-19 02:17 UTC.
Position N 59°32' E 021°17'.

Length 157 m; draft 9 m.

Type: Cargo ship. MMSI: 230935000.

Date/timePositionNaut miles runAvg speedWind from/ knotsBaromVisibWave heightAir tempDewpointWater temp
2014-Dec-14 20:10N 59°32' E 021°17'711.9
2014-Dec-14 19:34N 59°31' E 021°31'5211.6
2014-Dec-14 15:04N 59°40' E 023°13'611.6
2014-Dec-14 14:33N 59°41' E 023°25'1211.8
2014-Dec-14 13:34N 59°43' E 023°47'1811.9
2014-Dec-14 12:04N 59°47' E 024°22'812.1
2014-Dec-14 11:25N 59°49' E 024°37'5812.0
2014-Dec-14 06:33N 60°01' E 026°31'1212.2
2014-Dec-14 05:33N 59°60' E 026°55'3 0.1
2014-Dec-12 19:31N 59°58' E 027°00'1313.4
2014-Dec-12 18:34N 59°59' E 026°34'1513.7
2014-Dec-12 17:27N 59°55' E 026°05'13 0.4
2014-Dec-11 07:31N 60°01' E 026°28'1111.9
2014-Dec-11 06:34N 60°00' E 026°50'6 0.2
2014-Dec-10 03:21N 59°58' E 027°02'1113.7
2014-Dec-10 02:33N 59°59' E 026°40'1513.7
2014-Dec-10 01:26N 59°56' E 026°11'4012.6
2014-Dec-09 22:14N 59°49' E 024°51'812.2
2014-Dec-09 21:33N 59°50' E 024°35'1311.8
2014-Dec-09 20:28N 59°51' E 024°09'8 8.4
2014-Dec-09 19:33N 59°58' E 024°04'5 4.9
2014-Dec-09 18:32N 60°01' E 023°55'0 0.0
2014-Dec-09 16:23N 60°01' E 023°55'0 0.0
2014-Dec-09 15:32N 60°01' E 023°55'0 0.0
2014-Dec-09 13:23N 60°01' E 023°55'0 0.0
2014-Dec-09 12:11N 60°01' E 023°55'0 0.0
2014-Dec-09 11:17N 60°01' E 023°55'0 0.0
2014-Dec-09 07:29N 60°01' E 023°55'0 0.0
2014-Dec-09 05:29N 60°01' E 023°55'0 0.0
2014-Dec-09 01:05N 60°01' E 023°55'0 0.0
2014-Dec-08 17:11N 60°01' E 023°55'0 0.0
2014-Dec-08 12:05N 60°01' E 023°55'0 0.0
2014-Dec-08 11:29N 60°01' E 023°55'0 0.0
2014-Dec-08 10:29N 60°01' E 023°55'0 0.0
2014-Dec-08 08:11N 60°01' E 023°55'0 0.0
2014-Dec-08 06:17N 60°01' E 023°55'0 0.0
2014-Dec-08 05:29N 60°01' E 023°55'0 0.0
2014-Dec-07 23:14N 60°01' E 023°55'0 0.0
2014-Dec-07 22:14N 60°01' E 023°55'0 0.0
2014-Dec-07 20:32N 60°01' E 023°55'0 0.0
2014-Dec-07 19:23N 60°01' E 023°55'0 0.0
2014-Dec-07 18:23N 60°01' E 023°55'0 0.0
2014-Dec-07 17:29N 60°01' E 023°55'0 0.0
2014-Dec-07 16:26N 60°01' E 023°55'5 5.4
2014-Dec-07 15:31N 59°58' E 024°04'9 9.2
2014-Dec-07 14:33N 59°51' E 024°13'7211.8
2014-Dec-07 08:30N 60°01' E 026°34'1212.5
2014-Dec-07 07:31N 59°60' E 026°58'4 0.1
2014-Dec-05 17:33N 59°59' E 026°50'1413.6
2014-Dec-05 16:33N 59°57' E 026°23'4410.7
2014-Dec-05 12:28N 60°10' E 024°59'  
Track history (hours):
 
Tides and Currents Weather Stations Pressure Air Temp Water Temp Dewpoint Dewpoint Depression Visibility Wind Speed Wind Dir Waves Ship Positions

Eira

Last reported at 2014-Dec-14 20:10 UTC. Time now 2014-Dec-19 02:17 UTC.
Position N 59°32' E 021°17'.

Length 157 m; draft 9 m.

Type: Cargo ship. MMSI: 230935000.

Date/timePositionNaut miles runAvg speedWind from/ knotsBaromVisibWave heightAir tempDewpointWater temp
2014-Dec-14 20:10N 59°32' E 021°17'711.9
2014-Dec-14 19:34N 59°31' E 021°31'5211.6
2014-Dec-14 15:04N 59°40' E 023°13'611.6
2014-Dec-14 14:33N 59°41' E 023°25'1211.8
2014-Dec-14 13:34N 59°43' E 023°47'1811.9
2014-Dec-14 12:04N 59°47' E 024°22'812.1
2014-Dec-14 11:25N 59°49' E 024°37'5812.0
2014-Dec-14 06:33N 60°01' E 026°31'1212.2
2014-Dec-14 05:33N 59°60' E 026°55'3 0.1
2014-Dec-12 19:31N 59°58' E 027°00'1313.4
2014-Dec-12 18:34N 59°59' E 026°34'1513.7
2014-Dec-12 17:27N 59°55' E 026°05'13 0.4
2014-Dec-11 07:31N 60°01' E 026°28'1111.9
2014-Dec-11 06:34N 60°00' E 026°50'6 0.2
2014-Dec-10 03:21N 59°58' E 027°02'1113.7
2014-Dec-10 02:33N 59°59' E 026°40'1513.7
2014-Dec-10 01:26N 59°56' E 026°11'4012.6
2014-Dec-09 22:14N 59°49' E 024°51'812.2
2014-Dec-09 21:33N 59°50' E 024°35'1311.8
2014-Dec-09 20:28N 59°51' E 024°09'8 8.4
2014-Dec-09 19:33N 59°58' E 024°04'5 4.9
2014-Dec-09 18:32N 60°01' E 023°55'0 0.0
2014-Dec-09 16:23N 60°01' E 023°55'0 0.0
2014-Dec-09 15:32N 60°01' E 023°55'0 0.0
2014-Dec-09 13:23N 60°01' E 023°55'0 0.0
2014-Dec-09 12:11N 60°01' E 023°55'0 0.0
2014-Dec-09 11:17N 60°01' E 023°55'0 0.0
2014-Dec-09 07:29N 60°01' E 023°55'0 0.0
2014-Dec-09 05:29N 60°01' E 023°55'0 0.0
2014-Dec-09 01:05N 60°01' E 023°55'0 0.0
2014-Dec-08 17:11N 60°01' E 023°55'0 0.0
2014-Dec-08 12:05N 60°01' E 023°55'0 0.0
2014-Dec-08 11:29N 60°01' E 023°55'0 0.0
2014-Dec-08 10:29N 60°01' E 023°55'0 0.0
2014-Dec-08 08:11N 60°01' E 023°55'0 0.0
2014-Dec-08 06:17N 60°01' E 023°55'0 0.0
2014-Dec-08 05:29N 60°01' E 023°55'0 0.0
2014-Dec-07 23:14N 60°01' E 023°55'0 0.0
2014-Dec-07 22:14N 60°01' E 023°55'0 0.0
2014-Dec-07 20:32N 60°01' E 023°55'0 0.0
2014-Dec-07 19:23N 60°01' E 023°55'0 0.0
2014-Dec-07 18:23N 60°01' E 023°55'0 0.0
2014-Dec-07 17:29N 60°01' E 023°55'0 0.0
2014-Dec-07 16:26N 60°01' E 023°55'5 5.4
2014-Dec-07 15:31N 59°58' E 024°04'9 9.2
2014-Dec-07 14:33N 59°51' E 024°13'7211.8
2014-Dec-07 08:30N 60°01' E 026°34'1212.5
2014-Dec-07 07:31N 59°60' E 026°58'4 0.1
2014-Dec-05 17:33N 59°59' E 026°50'1413.6
2014-Dec-05 16:33N 59°57' E 026°23'4410.7
2014-Dec-05 12:28N 60°10' E 024°59'  

Dump ship's entire track history